Архив погоды в Армавире

Метеограмма Армавир
Вторник, 27 Июня
Время местн. Темп Ветер Видим Явления Облачность нижн/средн/верх Атм. давл. Влжн Точка росы ВНГО R Сост. почвы Tg s
Напр Скр Прв ур.ст ур.м изм
03:00 +17° Ю,Ю-В 1 - 10 км - ясно 746 760 -0.3 85% +14.4° более 2.5 км - - - -
00:00 +19.9° В,Ю-В 1 - 10 км - ясно 746 760 -0.5 72% +14.7° более 2.5 км - - - -
Понедельник, 26 Июня
Время местн. Темп Ветер Видим Явления Облачность нижн/средн/верх Атм. давл. Влжн Точка росы ВНГО R Сост. почвы Tg s
Напр Скр Прв ур.ст ур.м изм
21:00 +23.3° В 2 - 10 км - ясно 747 760 -0.3 58% +14.6° более 2.5 км - - - -
18:00 +28.7° В 2 - 10 км - ясно 747 760 -0.8 40% +13.7° более 2.5 км - - - -
15:00 +29.1° В,Ю-В 2 - 10 км - переменная облачность 748 761 -0.9 38% +13.2° 1 км - - - -
12:00 +27.9° В 2 - 10 км - переменная облачность 749 762 -0.2 40% +13.1° 1 км - - - -
09:00 +24.1° Ю-В 2 - 10 км - ясно 749 763 -0.4 60% +15.9° более 2.5 км - - - -
06:00 +16.3° В,Ю-В 1 - 10 км - ясно 749 763 -0.4 86% +13.9° более 2.5 км - Влажная (без луж) - -
03:00 +15.2° В,Ю-В 1 - 10 км - ясно 750 764 +0.1 93% +14° более 2.5 км - - - -
00:00 +17.3° Ю-В 2 - 10 км - ясно 750 764 +0.5 83% +14.4° более 2.5 км - - - -
Воскресенье, 25 Июня
Время местн. Темп Ветер Видим Явления Облачность нижн/средн/верх Атм. давл. Влжн Точка росы ВНГО R Сост. почвы Tg s
Напр Скр Прв ур.ст ур.м изм
21:00 +18.3° штиль 0 - 10 км - ясно 749 763 +0.7 86% +15.9° более 2.5 км - - - -
18:00 +25.9° С-З 2 - 10 км - незначительная облачность 748 762 +0.8 43% +12.4° 1 км 12 - - -
15:00 +25.8° З,С-З 4 - 10 км облака рассеиваются {ливневые осадки} облачно с прояснениями 748 761 +0.3 48% +14.1° 1 км - - - -
12:00 +23.9° З 4 - 10 км облака развиваются {ливневые осадки} преимущественно облачно 747 761 +0.8 68% +17.7° 1 км - - - -
09:00 +21.5° Ю-З 3 - 10 км облака развиваются {ливневые осадки} облачно 747 760 +0.8 76% +17.1° 1 км - - - -
06:00 +17.7° Ю 1 - 10 км небо без изменений {ливневые осадки} облачно 746 760 +0.7 92% +16.3° 1 км - Влажная (без луж) - -
03:00 +17.2° Ю-В 1 - 10 км слабый ливневый дождь облачно 745 759 0 91% +15.8° 1 км - - - -
00:00 +18.1° Ю,Ю-В 1 - 10 км слабый ливневый дождь облачно 745 759 +0.5 86% +15.8° 1 км - - - -
Суббота, 24 Июня
Время местн. Темп Ветер Видим Явления Облачность нижн/средн/верх Атм. давл. Влжн Точка росы ВНГО R Сост. почвы Tg s
Напр Скр Прв ур.ст ур.м изм
21:00 +21.4° С-З 4 - 10 км - преимущественно облачно 745 758 +1.1 54% +11.6° 1 км - - - -
18:00 +24.8° З 6 11 10 км - облачно 744 757 +0.4 47% +12.7° - - - - -
15:00 +26.8° З 8 13 10 км - преимущественно облачно 743 757 -0.2 43% +13° более 2.5 км - - - -
12:00 +26.8° З 6 10 10 км - переменная облачность 743 757 -0.9 45% +14° более 2.5 км - - - -
09:00 +19.9° Ю-В 2 - 10 км - облачно 744 758 -0.4 75% +15.3° - - - - -
06:00 +15.5° Ю-В 2 - 10 км - облачно с прояснениями 745 759 -0.8 88% +13.6° более 2.5 км 0 Влажная (без луж) +14° -
03:00 +15.2° Ю-В 3 - 10 км - ясно 745 760 -1 92% +13.9° более 2.5 км - - - -
00:00 +16.2° Ю,Ю-В 1 - 10 км - ясно 746 760 -0.6 89% +14.4° более 2.5 км - - - -